createdAt,value
2022-11-22T00:02:19.654Z,19.20
2022-11-22T00:04:47.400Z,19.26
2022-11-22T00:07:15.241Z,18.88
2022-11-22T00:09:43.481Z,19.26
2022-11-22T00:12:11.220Z,18.87
2022-11-22T00:14:38.975Z,19.22
2022-11-22T00:17:07.057Z,18.93
2022-11-22T00:19:35.871Z,18.89
2022-11-22T00:22:04.676Z,18.75
2022-11-22T00:24:32.760Z,18.86
2022-11-22T00:27:00.638Z,18.98
2022-11-22T00:29:28.531Z,19.09
2022-11-22T00:31:56.490Z,18.88
2022-11-22T00:34:24.187Z,18.97
2022-11-22T00:36:52.413Z,18.99
2022-11-22T00:39:20.196Z,18.72
2022-11-22T00:41:48.535Z,18.45
2022-11-22T00:44:16.408Z,18.45
2022-11-22T00:46:44.083Z,18.89
2022-11-22T00:49:11.754Z,19.00
2022-11-22T00:51:40.764Z,18.62
2022-11-22T00:54:08.854Z,18.75
2022-11-22T00:56:36.461Z,18.53
2022-11-22T00:59:04.317Z,18.56
2022-11-22T01:01:32.206Z,18.72
2022-11-22T01:04:00.629Z,18.71
2022-11-22T01:06:28.278Z,18.49
2022-11-22T01:08:56.205Z,18.69
2022-11-22T01:11:23.940Z,18.76
2022-11-22T01:13:51.584Z,18.51
2022-11-22T01:16:19.386Z,18.71
2022-11-22T01:18:47.018Z,18.44
2022-11-22T01:21:14.637Z,18.62
2022-11-22T01:23:42.571Z,18.51
2022-11-22T01:26:10.657Z,18.03
2022-11-22T01:28:38.809Z,18.15
2022-11-22T01:31:06.500Z,17.94
2022-11-22T01:33:34.481Z,18.20
2022-11-22T01:36:02.962Z,18.04
2022-11-22T01:38:30.729Z,18.63
2022-11-22T01:40:58.555Z,18.33
2022-11-22T01:43:28.632Z,17.94
2022-11-22T01:46:07.697Z,17.97
2022-11-22T01:48:48.780Z,18.64
2022-11-22T01:51:28.393Z,18.61
2022-11-22T01:54:00.803Z,18.56
2022-11-22T01:56:30.631Z,17.93
2022-11-22T01:59:03.303Z,18.55
2022-11-22T02:01:32.621Z,18.56
2022-11-22T02:04:03.320Z,18.58
2022-11-22T02:06:46.746Z,18.05
2022-11-22T02:09:14.923Z,18.43
2022-11-22T02:11:48.540Z,18.43
2022-11-22T02:14:19.561Z,18.53
2022-11-22T02:16:48.828Z,17.86
2022-11-22T02:19:23.550Z,17.99
2022-11-22T02:22:00.739Z,17.87
2022-11-22T02:24:39.615Z,18.25
2022-11-22T02:27:07.257Z,17.66
2022-11-22T02:29:35.754Z,18.52
2022-11-22T02:32:03.988Z,18.48
2022-11-22T02:34:42.618Z,18.40
2022-11-22T02:37:13.216Z,17.56
2022-11-22T02:39:44.202Z,18.35
2022-11-22T02:42:12.453Z,18.37
2022-11-22T02:44:42.123Z,17.57
2022-11-22T02:47:09.849Z,17.96
2022-11-22T02:49:37.539Z,17.76
2022-11-22T02:52:05.191Z,18.29
2022-11-22T02:54:33.311Z,17.64
2022-11-22T02:57:03.078Z,18.26
2022-11-22T02:59:31.367Z,18.35
2022-11-22T03:02:03.268Z,18.16
2022-11-22T03:04:31.328Z,18.31
2022-11-22T03:07:00.101Z,18.23
2022-11-22T03:09:29.472Z,18.04
2022-11-22T03:11:57.895Z,18.01
2022-11-22T03:14:25.853Z,18.18
2022-11-22T03:16:53.554Z,17.96
2022-11-22T03:19:21.582Z,18.07
2022-11-22T03:21:49.941Z,18.15
2022-11-22T03:24:17.793Z,18.16
2022-11-22T03:26:50.451Z,18.12
2022-11-22T03:29:18.364Z,18.01
2022-11-22T03:31:46.130Z,18.05
2022-11-22T03:34:14.140Z,18.05
2022-11-22T03:36:42.175Z,17.87
2022-11-22T03:39:09.916Z,18.05
2022-11-22T03:41:37.596Z,17.86
2022-11-22T03:44:05.400Z,18.05
2022-11-22T03:46:33.275Z,18.01
2022-11-22T03:49:01.006Z,17.91
2022-11-22T03:51:28.576Z,17.99
2022-11-22T03:53:56.572Z,17.75
2022-11-22T03:56:24.391Z,17.93
2022-11-22T03:58:51.997Z,17.79
2022-11-22T04:01:19.830Z,17.39
2022-11-22T04:03:47.677Z,17.72
2022-11-22T04:06:15.689Z,17.62
2022-11-22T04:08:43.771Z,17.72
2022-11-22T04:11:12.552Z,17.50
2022-11-22T04:13:59.050Z,17.86
2022-11-22T04:16:26.878Z,17.62
2022-11-22T04:18:54.549Z,17.52
2022-11-22T04:21:34.355Z,17.85
2022-11-22T04:24:23.122Z,17.89
2022-11-22T04:26:51.180Z,17.93
2022-11-22T04:29:20.677Z,17.95
2022-11-22T04:32:08.396Z,17.91
2022-11-22T04:34:36.689Z,17.85
2022-11-22T04:37:05.026Z,17.82
2022-11-22T04:39:33.237Z,17.82
2022-11-22T04:42:19.679Z,17.78
2022-11-22T04:44:47.539Z,17.54
2022-11-22T04:47:37.882Z,17.81
2022-11-22T04:50:28.753Z,17.79
2022-11-22T04:52:57.711Z,17.77
2022-11-22T04:55:25.470Z,17.66
2022-11-22T04:57:59.257Z,17.52
2022-11-22T05:00:31.554Z,17.78
2022-11-22T05:02:59.773Z,17.62
2022-11-22T05:05:27.611Z,17.58
2022-11-22T05:07:57.997Z,17.74
2022-11-22T05:10:27.062Z,17.62
2022-11-22T05:12:56.323Z,17.68
2022-11-22T05:15:24.202Z,17.65
2022-11-22T05:17:51.944Z,17.63
2022-11-22T05:20:19.705Z,17.68
2022-11-22T05:23:06.861Z,17.48
2022-11-22T05:25:34.734Z,17.63
2022-11-22T05:28:02.271Z,17.58
2022-11-22T05:30:30.011Z,17.57
2022-11-22T05:32:57.722Z,17.44
2022-11-22T05:35:25.873Z,17.45
2022-11-22T05:37:53.517Z,17.70
2022-11-22T05:40:21.269Z,17.74
2022-11-22T05:42:48.932Z,17.79
2022-11-22T05:45:17.018Z,17.86
2022-11-22T05:47:45.376Z,17.93
2022-11-22T05:50:13.757Z,17.78
2022-11-22T05:52:41.783Z,17.94
2022-11-22T05:55:09.859Z,17.97
2022-11-22T05:57:37.843Z,17.99
2022-11-22T06:00:08.532Z,18.02
2022-11-22T06:02:42.449Z,18.05
2022-11-22T06:05:10.302Z,17.79
2022-11-22T06:07:38.076Z,18.21
2022-11-22T06:10:06.115Z,18.08
2022-11-22T06:12:33.863Z,17.96
2022-11-22T06:15:01.640Z,18.24
2022-11-22T06:17:30.950Z,17.96
2022-11-22T06:20:04.170Z,18.23
2022-11-22T06:22:33.603Z,18.24
2022-11-22T06:25:02.181Z,18.08
2022-11-22T06:27:30.455Z,18.04
2022-11-22T06:29:58.349Z,17.79
2022-11-22T06:32:26.007Z,17.91
2022-11-22T06:34:53.934Z,18.29
2022-11-22T06:37:21.758Z,18.27
2022-11-22T06:39:50.729Z,18.24
2022-11-22T06:42:20.062Z,17.88
2022-11-22T06:44:47.759Z,18.20
2022-11-22T06:47:17.659Z,18.05
2022-11-22T06:49:48.448Z,18.23
2022-11-22T06:52:16.278Z,18.21
2022-11-22T06:54:44.035Z,18.17
2022-11-22T06:57:15.132Z,17.78
2022-11-22T06:59:42.759Z,17.84
2022-11-22T07:02:12.415Z,17.89
2022-11-22T07:04:56.071Z,17.88
2022-11-22T07:07:30.389Z,17.95
2022-11-22T07:09:58.143Z,18.09
2022-11-22T07:12:26.690Z,17.96
2022-11-22T07:14:54.445Z,18.04
2022-11-22T07:17:22.230Z,18.12
2022-11-22T07:19:50.136Z,18.09
2022-11-22T07:22:18.003Z,18.09
2022-11-22T07:24:45.701Z,18.02
2022-11-22T07:27:13.517Z,17.74
2022-11-22T07:29:41.225Z,18.05
2022-11-22T07:32:08.985Z,18.06
2022-11-22T07:34:36.702Z,17.98
2022-11-22T07:37:08.916Z,18.04
2022-11-22T07:39:37.014Z,17.73
2022-11-22T07:42:04.769Z,17.80
2022-11-22T07:44:32.548Z,17.68
2022-11-22T07:47:00.383Z,18.23
2022-11-22T07:49:28.402Z,18.29
2022-11-22T07:51:56.510Z,18.37
2022-11-22T07:54:24.267Z,18.10
2022-11-22T07:56:52.025Z,18.11
2022-11-22T07:59:19.841Z,18.50
2022-11-22T08:01:47.565Z,18.36
2022-11-22T08:04:15.615Z,17.95
2022-11-22T08:06:43.468Z,18.39
2022-11-22T08:09:12.035Z,18.42
2022-11-22T08:11:39.640Z,18.62
2022-11-22T08:14:07.382Z,18.77
2022-11-22T08:16:35.198Z,18.49
2022-11-22T08:19:02.833Z,18.56
2022-11-22T08:21:30.544Z,18.41
2022-11-22T08:23:59.279Z,18.78
2022-11-22T08:26:26.996Z,18.60
2022-11-22T08:28:54.710Z,18.74
2022-11-22T08:31:22.574Z,18.40
2022-11-22T08:33:53.940Z,18.62
2022-11-22T08:36:22.156Z,18.44
2022-11-22T08:38:49.940Z,18.53
2022-11-22T08:41:18.968Z,18.91
2022-11-22T08:43:49.513Z,18.65
2022-11-22T08:46:17.727Z,18.86
2022-11-22T08:48:46.301Z,18.63
2022-11-22T08:51:14.477Z,19.04
2022-11-22T08:53:43.733Z,19.03
2022-11-22T08:56:14.183Z,19.03
2022-11-22T08:58:43.192Z,19.02
2022-11-22T09:01:14.661Z,19.02
2022-11-22T09:03:43.973Z,18.81
2022-11-22T09:11:49.568Z,18.85
2022-11-22T09:14:17.487Z,18.52
2022-11-22T09:16:45.334Z,18.72
2022-11-22T09:19:12.993Z,18.48
2022-11-22T09:21:40.557Z,18.85
2022-11-22T09:24:08.344Z,18.50
2022-11-22T09:26:36.245Z,18.76
2022-11-22T09:29:04.229Z,18.83
2022-11-22T09:31:32.417Z,18.84
2022-11-22T09:34:00.131Z,18.92
2022-11-22T09:36:28.087Z,18.84
2022-11-22T09:38:59.157Z,18.67
2022-11-22T09:42:12.290Z,18.88
2022-11-22T09:44:58.776Z,18.92
2022-11-22T09:47:48.191Z,18.88
2022-11-22T09:50:35.363Z,18.90
2022-11-22T09:53:04.758Z,18.66
2022-11-22T09:55:42.185Z,18.85
2022-11-22T09:58:23.651Z,18.88
2022-11-22T10:00:53.089Z,18.87
2022-11-22T10:03:47.708Z,18.77
2022-11-22T10:06:27.620Z,18.82
2022-11-22T10:09:28.220Z,18.81
2022-11-22T10:12:25.469Z,18.69
2022-11-22T10:15:08.588Z,18.83
2022-11-22T10:18:02.601Z,18.73
2022-11-22T10:20:35.406Z,18.46
2022-11-22T10:23:03.803Z,18.62
2022-11-22T10:25:45.984Z,18.70
2022-11-22T10:28:23.052Z,18.94
2022-11-22T10:31:16.904Z,18.89
2022-11-22T10:33:57.245Z,18.95
2022-11-22T10:36:59.066Z,19.06
2022-11-22T10:39:30.114Z,19.05
2022-11-22T10:42:20.738Z,19.04
2022-11-22T10:45:25.161Z,18.94
2022-11-22T10:48:23.201Z,18.88
2022-11-22T10:51:15.838Z,19.09
2022-11-22T10:53:49.481Z,19.13
2022-11-22T10:56:23.243Z,19.19
2022-11-22T10:59:12.872Z,19.28
2022-11-22T11:01:48.716Z,19.19
2022-11-22T11:04:18.354Z,19.13
2022-11-22T11:07:11.053Z,19.16
2022-11-22T11:13:01.918Z,19.32
2022-11-22T11:15:42.529Z,19.30
2022-11-22T11:18:52.139Z,19.14
2022-11-22T11:21:19.837Z,19.25
2022-11-22T11:23:48.573Z,19.11
2022-11-22T11:26:29.502Z,19.15
2022-11-22T11:29:18.977Z,19.12
2022-11-22T11:31:48.965Z,19.15
2022-11-22T11:34:24.569Z,19.17
2022-11-22T11:36:56.371Z,19.02
2022-11-22T11:39:29.054Z,19.23
2022-11-22T11:41:58.353Z,18.92
2022-11-22T11:44:32.454Z,19.13
2022-11-22T11:47:00.763Z,19.06
2022-11-22T11:49:31.252Z,19.14
2022-11-22T11:52:03.761Z,19.05
2022-11-22T11:54:44.293Z,18.92
2022-11-22T11:57:11.855Z,19.08
2022-11-22T11:59:39.489Z,19.12
2022-11-22T12:02:39.907Z,19.06
2022-11-22T12:05:13.972Z,19.06
2022-11-22T12:07:46.591Z,18.95
2022-11-22T12:10:30.030Z,19.02
2022-11-22T12:13:13.300Z,18.96
2022-11-22T12:16:08.788Z,19.10
2022-11-22T12:19:02.813Z,19.11
2022-11-22T12:21:40.257Z,19.09
2022-11-22T12:24:45.596Z,19.03
2022-11-22T12:27:14.279Z,18.68
2022-11-22T12:29:46.489Z,18.57
2022-11-22T12:32:27.900Z,18.70
2022-11-22T12:35:03.994Z,19.09
2022-11-22T12:37:39.487Z,18.95
2022-11-22T12:40:25.431Z,19.29
2022-11-22T12:42:58.212Z,19.05
2022-11-22T12:45:35.051Z,18.79
2022-11-22T12:48:14.469Z,18.94
2022-11-22T12:50:47.857Z,19.14
2022-11-22T12:53:20.775Z,19.36
2022-11-22T12:55:58.920Z,18.99
2022-11-22T12:58:51.475Z,19.36
2022-11-22T13:01:38.156Z,19.24
2022-11-22T13:04:12.274Z,19.46
2022-11-22T13:06:50.021Z,19.46
2022-11-22T13:09:31.872Z,19.45
2022-11-22T13:12:05.588Z,19.13
2022-11-22T13:14:41.716Z,19.51
2022-11-22T13:17:11.158Z,19.36
2022-11-22T13:19:47.190Z,19.26
2022-11-22T13:22:39.984Z,19.50
2022-11-22T13:25:27.180Z,19.24
2022-11-22T13:28:00.666Z,19.52
2022-11-22T13:30:31.096Z,19.17
2022-11-22T13:33:01.066Z,19.43
2022-11-22T13:35:37.585Z,19.46
2022-11-22T13:38:11.248Z,19.23
2022-11-22T13:40:45.392Z,19.46
2022-11-22T13:43:21.924Z,19.47
2022-11-22T13:45:50.099Z,19.49
2022-11-22T13:48:42.639Z,19.42
2022-11-22T13:51:13.171Z,19.19
2022-11-22T13:53:45.769Z,19.42
2022-11-22T13:56:16.547Z,19.43
2022-11-22T13:59:04.624Z,19.28
2022-11-22T14:01:35.256Z,19.41
2022-11-22T14:04:21.802Z,19.43
2022-11-22T14:06:58.009Z,19.42
2022-11-22T14:09:38.065Z,19.43
2022-11-22T14:12:23.009Z,19.40
2022-11-22T14:15:21.000Z,19.17
2022-11-22T14:18:00.751Z,19.40
2022-11-22T14:20:28.367Z,19.40
2022-11-22T14:23:01.958Z,19.15
2022-11-22T14:25:45.029Z,19.42
2022-11-22T14:28:40.158Z,19.40
2022-11-22T14:31:23.771Z,19.10
2022-11-22T14:34:18.123Z,19.42
2022-11-22T14:37:08.357Z,19.25
2022-11-22T14:39:45.473Z,19.41
2022-11-22T14:42:36.597Z,19.34
2022-11-22T14:45:11.451Z,19.40
2022-11-22T14:47:47.794Z,19.42
2022-11-22T14:50:28.348Z,19.40
2022-11-22T14:52:59.672Z,19.42
2022-11-22T14:55:32.435Z,19.18
2022-11-22T14:58:07.689Z,19.48
2022-11-22T15:00:57.443Z,19.48
2022-11-22T15:03:40.400Z,19.44
2022-11-22T15:09:21.285Z,19.45
2022-11-22T15:09:40.629Z,19.46
2022-11-22T15:12:27.775Z,19.34
2022-11-22T15:57:32.239Z,19.22
2022-11-22T16:00:00.316Z,19.31
2022-11-22T16:02:31.772Z,19.23
2022-11-22T16:06:09.639Z,19.42
2022-11-22T16:07:49.926Z,19.26
2022-11-22T16:10:26.477Z,19.38
2022-11-22T16:12:54.379Z,19.38
2022-11-22T16:15:36.316Z,19.38
2022-11-22T16:18:13.504Z,19.50
2022-11-22T16:20:42.842Z,19.25
2022-11-22T16:23:10.843Z,19.52
2022-11-22T16:25:40.700Z,19.11
2022-11-22T16:28:33.117Z,19.52
2022-11-22T16:31:04.496Z,19.07
2022-11-22T16:33:32.529Z,19.51
2022-11-22T16:36:01.892Z,19.49
2022-11-22T16:38:29.750Z,19.44
2022-11-22T16:40:59.245Z,19.39
2022-11-22T16:43:34.206Z,19.25
2022-11-22T16:46:02.700Z,19.46
2022-11-22T16:48:32.609Z,18.92
2022-11-22T16:51:06.265Z,19.41
2022-11-22T16:53:48.459Z,19.31
2022-11-22T16:56:24.481Z,19.51
2022-11-22T16:58:54.770Z,19.35
2022-11-22T17:01:26.555Z,19.16
2022-11-22T17:03:57.123Z,19.49
2022-11-22T17:06:27.145Z,19.29
2022-11-22T17:08:57.463Z,19.09
2022-11-22T17:11:27.382Z,19.39
2022-11-22T17:13:55.531Z,19.39
2022-11-22T17:16:24.762Z,19.43
2022-11-22T17:18:53.464Z,19.23
2022-11-22T17:21:35.860Z,19.40
2022-11-22T17:24:13.508Z,19.29
2022-11-22T17:26:41.373Z,18.82
2022-11-22T17:29:18.321Z,19.31
2022-11-22T17:31:57.648Z,19.27
2022-11-22T17:34:25.396Z,19.22
2022-11-22T17:36:53.134Z,19.09
2022-11-22T17:39:20.907Z,19.26
2022-11-22T17:41:49.651Z,19.31
2022-11-22T17:44:18.349Z,19.27
2022-11-22T17:46:47.302Z,19.28
2022-11-22T17:49:16.310Z,19.39
2022-11-22T17:51:44.159Z,18.99
2022-11-22T17:54:11.711Z,19.30
2022-11-22T17:56:39.483Z,19.24
2022-11-22T17:59:08.472Z,19.27
2022-11-22T18:01:37.059Z,19.13
2022-11-22T18:04:05.529Z,19.01
2022-11-22T18:06:33.167Z,19.01
2022-11-22T18:09:01.075Z,19.44
2022-11-22T18:11:28.793Z,19.34
2022-11-22T18:13:56.544Z,19.19
2022-11-22T18:16:28.564Z,18.87
2022-11-22T18:18:58.252Z,19.27
2022-11-22T18:21:32.288Z,19.33
2022-11-22T18:24:01.218Z,19.24
2022-11-22T18:26:44.657Z,19.33
2022-11-22T18:32:02.238Z,19.18
2022-11-22T18:34:31.179Z,19.36
2022-11-22T18:37:02.469Z,19.35
2022-11-22T18:39:35.022Z,19.38
2022-11-22T18:42:04.943Z,19.39
2022-11-22T18:44:33.021Z,19.34
2022-11-22T18:47:00.758Z,19.38
2022-11-22T18:49:28.824Z,18.99
2022-11-22T18:51:56.597Z,19.31
2022-11-22T18:54:24.618Z,19.44
2022-11-22T18:56:52.598Z,19.52
2022-11-22T18:59:20.395Z,19.44
2022-11-22T19:01:48.364Z,19.51
2022-11-22T19:04:16.778Z,19.45
2022-11-22T19:06:45.331Z,19.25
2022-11-22T19:09:13.423Z,19.52
2022-11-22T19:11:41.155Z,19.54
2022-11-22T19:14:09.927Z,19.29
2022-11-22T19:16:37.855Z,19.54
2022-11-22T19:19:05.745Z,19.11
2022-11-22T19:21:33.518Z,19.37
2022-11-22T19:24:02.474Z,19.53
2022-11-22T19:26:30.149Z,19.50
2022-11-22T19:29:00.340Z,19.37
2022-11-22T19:31:31.649Z,19.12
2022-11-22T19:33:59.894Z,19.42
2022-11-22T19:36:34.193Z,19.38
2022-11-22T19:39:04.442Z,19.11
2022-11-22T19:41:32.488Z,19.40
2022-11-22T19:44:01.845Z,19.23
2022-11-22T19:46:30.411Z,19.41
2022-11-22T19:49:00.200Z,18.97
2022-11-22T19:51:30.144Z,19.38
2022-11-22T19:54:02.240Z,19.46
2022-11-22T19:56:38.347Z,19.02
2022-11-22T19:59:08.353Z,19.46
2022-11-22T20:01:36.130Z,19.22
2022-11-22T20:04:05.973Z,19.48
2022-11-22T20:06:35.267Z,19.05
2022-11-22T20:09:12.286Z,19.46
2022-11-22T20:11:41.521Z,19.38
2022-11-22T20:14:10.123Z,19.48
2022-11-22T20:16:42.948Z,19.17
2022-11-22T20:19:12.626Z,19.24
2022-11-22T20:21:40.651Z,19.33
2022-11-22T20:24:08.989Z,19.08
2022-11-22T20:26:38.441Z,18.94
2022-11-22T20:29:08.333Z,19.07
2022-11-22T20:31:38.607Z,19.20
2022-11-22T20:34:07.594Z,19.33
2022-11-22T20:36:35.892Z,19.22
2022-11-22T20:39:09.821Z,19.13
2022-11-22T20:41:39.006Z,19.32
2022-11-22T20:44:11.366Z,19.43
2022-11-22T20:46:40.516Z,19.29
2022-11-22T20:49:08.484Z,19.06
2022-11-22T20:51:40.132Z,19.32
2022-11-22T20:54:09.184Z,19.43
2022-11-22T20:56:38.324Z,19.50
2022-11-22T20:59:07.091Z,19.46
2022-11-22T21:01:35.970Z,19.49
2022-11-22T21:04:03.859Z,19.44
2022-11-22T21:06:33.779Z,19.36
2022-11-22T21:09:01.625Z,19.39
2022-11-22T21:11:32.003Z,19.47
2022-11-22T21:13:59.899Z,19.14
2022-11-22T21:16:29.572Z,19.39
2022-11-22T21:19:02.283Z,19.16
2022-11-22T21:21:31.119Z,19.40
2022-11-22T21:24:01.505Z,19.36
2022-11-22T21:26:29.874Z,19.34
2022-11-22T21:29:00.209Z,19.34
2022-11-22T21:31:28.508Z,19.32
2022-11-22T21:33:56.414Z,19.11
2022-11-22T21:36:24.231Z,19.16
2022-11-22T21:38:52.403Z,19.22
2022-11-22T21:44:11.068Z,19.38
2022-11-22T21:46:39.484Z,19.35
2022-11-22T21:49:07.517Z,19.07
2022-11-22T21:51:36.508Z,18.92
2022-11-22T21:54:04.535Z,19.22
2022-11-22T21:56:32.162Z,18.91
2022-11-22T21:58:59.920Z,19.14
2022-11-22T22:01:27.945Z,19.16
2022-11-22T22:03:58.583Z,18.85
2022-11-22T22:06:26.355Z,18.93
2022-11-22T22:08:56.148Z,19.04
2022-11-22T22:11:24.254Z,19.18
2022-11-22T22:13:56.832Z,18.85
2022-11-22T22:16:27.479Z,18.99
2022-11-22T22:19:04.353Z,18.99
2022-11-22T22:21:38.558Z,18.71
2022-11-22T22:24:06.592Z,19.05
2022-11-22T22:26:34.401Z,19.05
2022-11-22T22:29:02.099Z,19.12
2022-11-22T22:31:29.862Z,18.89
2022-11-22T22:33:57.975Z,19.18
2022-11-22T22:36:27.740Z,19.18
2022-11-22T22:38:55.692Z,19.11
2022-11-22T22:41:23.765Z,18.80
2022-11-22T22:43:51.422Z,19.05
2022-11-22T22:46:27.553Z,18.87
2022-11-22T22:48:56.441Z,18.86
2022-11-22T22:51:32.378Z,18.95
2022-11-22T22:54:01.395Z,19.09
2022-11-22T22:56:31.448Z,19.03
2022-11-22T22:59:01.301Z,19.13
2022-11-22T23:01:31.430Z,19.10
2022-11-22T23:04:01.558Z,18.98
2022-11-22T23:06:32.487Z,19.07
2022-11-22T23:09:00.739Z,18.77
2022-11-22T23:11:49.918Z,18.64
2022-11-22T23:14:20.477Z,18.98
2022-11-22T23:16:52.036Z,18.99
2022-11-22T23:19:23.302Z,19.00
2022-11-22T23:21:51.359Z,18.61
2022-11-22T23:24:19.394Z,19.00
2022-11-22T23:26:48.075Z,18.88
2022-11-22T23:29:15.835Z,18.88
2022-11-22T23:31:43.607Z,18.73
2022-11-22T23:34:11.929Z,18.59
2022-11-22T23:36:41.293Z,18.58
2022-11-22T23:39:10.256Z,18.95
2022-11-22T23:41:38.151Z,18.89
2022-11-22T23:44:06.204Z,18.50
2022-11-22T23:46:33.901Z,18.87
2022-11-22T23:49:03.358Z,18.86
2022-11-22T23:51:32.811Z,18.51
2022-11-22T23:54:03.130Z,18.80
2022-11-22T23:56:32.571Z,18.65
2022-11-22T23:59:01.314Z,18.75
